CYXZ

Wawa Airport

Wawa, Ontario, Canada
TAF CYXZ 231938Z 2320/2324 22006KT P6SM FEW190 BKN240 RMK NXT FCST WILL BE ISSUED AT 241245Z
Issued Valid From Valid To
Apr-23 @ 19:38 UTC
(3 hours ago)
Apr-23 @ 20:00 UTC
(3 hours ago)
Apr-24 @ 00:00 UTC
(in an hour)
Apr-23 @ 20:00 to Apr-24 @ 00:00
TAF CYXZ 231938Z 2320/2324 22006KT P6SM FEW190 BKN240 RMK NXT FCST WILL BE ISSUED AT 241245Z
Wind Visibility Clouds
220° at 6 knots Greater than 6 miles
  • Few at 19,000' AGL
  • Broken at 24,000' AGL
TAF CYXZ 231938Z 2320/2324 22006KT P6SM FEW190 BKN240 RMK NXT FCST WILL BE ISSUED AT 241245Z
Issued Apr-23 @ 19:38 UTC
(3 hours ago)
Valid From Apr-23 @ 20:00 UTC
(3 hours ago)
Valid To Apr-24 @ 00:00 UTC
(in an hour)
Apr-23 @ 20:00 - Apr-24 @ 00:00
Wind Visibility
220° at 6 knots Greater than 6 miles
Clouds
  • Few at 19,000' AGL
  • Broken at 24,000' AGL